Time,TemperatureF,DewpointF,PressureIn,WindDirection,WindDirectionDegrees,WindSpeedMPH,WindSpeedGustMPH,Humidity,HourlyPrecipIn,Conditions,Clouds,dailyrainin,SoftwareType,DateUTC
2013-01-19 00:04:00,33.0,16.0,-100.00,ENE,72,6.0,12.0,46,0.00,,,-99.99,,2013-01-19 05:04:00,
2013-01-19 00:13:00,33.0,16.0,-100.00,East,79,6.0,6.0,47,0.00,,,-99.99,,2013-01-19 05:13:00,
2013-01-19 00:23:00,33.0,16.0,-100.00,ENE,72,4.0,6.0,46,0.00,,,-99.99,,2013-01-19 05:23:00,
2013-01-19 00:33:00,33.0,16.0,-100.00,ENE,72,4.0,6.0,49,0.00,,,-99.99,,2013-01-19 05:33:00,
2013-01-19 00:43:00,33.0,16.0,-100.00,ENE,67,4.0,6.0,47,0.00,,,-99.99,,2013-01-19 05:43:00,
2013-01-19 00:53:00,36.0,19.0,-100.00,ENE,73,4.0,6.0,50,0.00,,,-99.99,,2013-01-19 05:53:00,
2013-01-19 01:03:00,33.0,16.0,-100.00,East,79,4.0,6.0,49,0.00,,,-99.99,,2013-01-19 06:03:00,
2013-01-19 01:12:00,33.0,16.0,-100.00,East,79,4.0,6.0,49,0.00,,,-99.99,,2013-01-19 06:12:00,
2013-01-19 01:22:00,34.0,16.0,-100.00,ENE,74,7.0,10.0,47,0.00,,,-99.99,,2013-01-19 06:22:00,
2013-01-19 01:33:00,33.0,18.0,-100.00,East,81,5.0,10.0,49,0.00,,,-99.99,,2013-01-19 06:33:00,
2013-01-19 01:43:00,33.0,18.0,-100.00,ENE,76,7.0,10.0,50,0.00,,,-99.99,,2013-01-19 06:43:00,
2013-01-19 01:52:00,33.0,18.0,-100.00,ENE,70,7.0,10.0,51,0.00,,,-99.99,,2013-01-19 06:52:00,
2013-01-19 02:02:00,33.0,18.0,-100.00,ENE,64,8.0,10.0,51,0.00,,,-99.99,,2013-01-19 07:02:00,
2013-01-19 02:12:00,34.0,18.0,-100.00,ENE,72,6.0,10.0,51,0.00,,,-99.99,,2013-01-19 07:12:00,
2013-01-19 02:22:00,33.0,18.0,-100.00,East,79,6.0,10.0,51,0.00,,,-99.99,,2013-01-19 07:22:00,
2013-01-19 02:33:00,33.0,18.0,-100.00,East,79,6.0,10.0,51,0.00,,,-99.99,,2013-01-19 07:33:00,
2013-01-19 02:43:00,33.0,19.0,-100.00,ENE,72,6.0,10.0,53,0.00,,,-99.99,,2013-01-19 07:43:00,
2013-01-19 02:52:00,33.0,19.0,-100.00,East,81,8.0,12.0,53,0.00,,,-99.99,,2013-01-19 07:52:00,
2013-01-19 03:02:00,33.0,19.0,-100.00,East,81,6.0,12.0,53,0.00,,,-99.99,,2013-01-19 08:02:00,
2013-01-19 03:12:00,34.0,19.0,-100.00,ENE,72,4.0,12.0,54,0.00,,,-99.99,,2013-01-19 08:12:00,
2013-01-19 03:22:00,33.0,19.0,-100.00,ENE,67,4.0,12.0,54,0.00,,,-99.99,,2013-01-19 08:22:00,
2013-01-19 03:32:00,34.0,19.0,-100.00,ENE,72,5.0,12.0,53,0.00,,,-99.99,,2013-01-19 08:32:00,
2013-01-19 03:43:00,34.0,19.0,-100.00,ENE,72,6.0,12.0,53,0.00,,,-99.99,,2013-01-19 08:43:00,
2013-01-19 03:52:00,33.0,19.0,-100.00,ENE,74,5.0,12.0,54,0.00,,,-99.99,,2013-01-19 08:52:00,
2013-01-19 04:02:00,33.0,19.0,-100.00,ENE,63,4.0,12.0,53,0.00,,,-99.99,,2013-01-19 09:02:00,
2013-01-19 04:12:00,33.0,19.0,-100.00,East,81,6.0,12.0,53,0.00,,,-99.99,,2013-01-19 09:12:00,
2013-01-19 04:23:00,34.0,19.0,-100.00,ENE,73,5.0,12.0,53,0.00,,,-99.99,,2013-01-19 09:23:00,
2013-01-19 04:33:00,33.0,19.0,-100.00,ENE,69,5.0,12.0,53,0.00,,,-99.99,,2013-01-19 09:33:00,
2013-01-19 04:43:00,33.0,19.0,-100.00,ENE,69,5.0,12.0,53,0.00,,,-99.99,,2013-01-19 09:43:00,
2013-01-19 04:52:00,34.0,18.0,-100.00,ENE,63,6.0,12.0,51,0.00,,,-99.99,,2013-01-19 09:52:00,
2013-01-19 05:02:00,34.0,19.0,-100.00,ENE,72,5.0,12.0,51,0.00,,,-99.99,,2013-01-19 10:02:00,
2013-01-19 05:12:00,34.0,18.0,-100.00,ENE,72,7.0,12.0,49,0.00,,,-99.99,,2013-01-19 10:12:00,
2013-01-19 05:23:00,34.0,18.0,-100.00,ENE,73,6.0,12.0,50,0.00,,,-99.99,,2013-01-19 10:23:00,
2013-01-19 05:33:00,34.0,18.0,-100.00,ENE,73,7.0,12.0,49,0.00,,,-99.99,,2013-01-19 10:33:00,
2013-01-19 05:43:00,34.0,18.0,-100.00,ENE,70,7.0,12.0,49,0.00,,,-99.99,,2013-01-19 10:43:00,
2013-01-19 05:52:00,34.0,18.0,-100.00,ENE,62,6.0,12.0,49,0.00,,,-99.99,,2013-01-19 10:52:00,
2013-01-19 06:03:00,34.0,18.0,-100.00,ENE,74,6.0,12.0,49,0.00,,,-99.99,,2013-01-19 11:03:00,
2013-01-19 06:12:00,36.0,18.0,-100.00,ENE,70,6.0,12.0,46,0.00,,,-99.99,,2013-01-19 11:12:00,
2013-01-19 06:42:00,35.0,16.0,-100.00,ENE,70,6.0,12.0,44,0.00,,,-99.99,,2013-01-19 11:42:00,
2013-01-19 07:48:00,35.0,16.0,-100.00,East,81,5.0,12.0,44,0.00,,,-99.99,,2013-01-19 12:48:00,
2013-01-19 07:53:00,36.0,18.0,-100.00,ENE,62,5.0,12.0,45,0.00,,,-99.99,,2013-01-19 12:53:00,
2013-01-19 08:03:00,35.0,18.0,-100.00,East,81,6.0,12.0,46,0.00,,,-99.99,,2013-01-19 13:03:00,
2013-01-19 08:13:00,35.0,16.0,-100.00,ENE,70,5.0,12.0,45,0.00,,,-99.99,,2013-01-19 13:13:00,
2013-01-19 08:23:00,35.0,16.0,-100.00,ENE,70,5.0,12.0,45,0.00,,,-99.99,,2013-01-19 13:23:00,
2013-01-19 08:33:00,35.0,16.0,-100.00,ENE,70,5.0,12.0,45,0.00,,,-99.99,,2013-01-19 13:33:00,
2013-01-19 08:43:00,35.0,18.0,-100.00,East,81,7.0,12.0,47,0.00,,,-99.99,,2013-01-19 13:43:00,
2013-01-19 08:53:00,37.0,19.0,-100.00,ENE,72,7.0,12.0,46,0.00,,,-99.99,,2013-01-19 13:53:00,
2013-01-19 09:03:00,36.0,18.0,-100.00,ENE,72,6.0,12.0,47,0.00,,,-99.99,,2013-01-19 14:03:00,
2013-01-19 09:12:00,37.0,19.0,-100.00,East,81,8.0,12.0,46,0.00,,,-99.99,,2013-01-19 14:12:00,
2013-01-19 09:23:00,37.0,19.0,-100.00,ENE,72,8.0,12.0,46,0.00,,,-99.99,,2013-01-19 14:23:00,
2013-01-19 09:34:00,38.0,19.0,-100.00,ENE,72,8.0,12.0,46,0.00,,,-99.99,,2013-01-19 14:34:00,
2013-01-19 09:43:00,38.0,19.0,-100.00,ENE,72,8.0,12.0,46,0.00,,,-99.99,,2013-01-19 14:43:00,
2013-01-19 09:53:00,40.0,21.0,-100.00,ENE,73,7.0,12.0,44,0.00,,,-99.99,,2013-01-19 14:53:00,
2013-01-19 10:03:00,39.0,19.0,-100.00,ENE,73,9.0,12.0,44,0.00,,,-99.99,,2013-01-19 15:03:00,
2013-01-19 10:13:00,40.0,21.0,-100.00,ENE,62,6.0,12.0,44,0.00,,,-99.99,,2013-01-19 15:13:00,
2013-01-19 10:23:00,41.0,19.0,-100.00,ENE,64,10.0,15.0,40,0.00,,,-99.99,,2013-01-19 15:23:00,
2013-01-19 10:33:00,41.0,18.0,-100.00,East,79,9.0,15.0,38,0.00,,,-99.99,,2013-01-19 15:33:00,
2013-01-19 10:43:00,41.0,18.0,-100.00,East,81,11.0,15.0,37,0.00,,,-99.99,,2013-01-19 15:43:00,
2013-01-19 10:53:00,42.0,18.0,-100.00,ENE,70,9.0,15.0,36,0.00,,,-99.99,,2013-01-19 15:53:00,
2013-01-19 11:03:00,42.0,16.0,-100.00,East,79,9.0,15.0,33,0.00,,,-99.99,,2013-01-19 16:03:00,
2013-01-19 11:13:00,42.0,16.0,-100.00,ENE,72,9.0,15.0,34,0.00,,,-99.99,,2013-01-19 16:13:00,
2013-01-19 11:23:00,43.0,18.0,-100.00,East,81,8.0,15.0,33,0.00,,,-99.99,,2013-01-19 16:23:00,
2013-01-19 11:33:00,44.0,18.0,-100.00,ENE,69,8.0,15.0,32,0.00,,,-99.99,,2013-01-19 16:33:00,
2013-01-19 11:43:00,44.0,16.0,-100.00,East,80,11.0,15.0,31,0.00,,,-99.99,,2013-01-19 16:43:00,
2013-01-19 11:53:00,44.0,16.0,-100.00,ENE,72,10.0,15.0,31,0.00,,,-99.99,,2013-01-19 16:53:00,
2013-01-19 12:03:00,45.0,18.0,-100.00,ENE,69,11.0,15.0,31,0.00,,,-99.99,,2013-01-19 17:03:00,
2013-01-19 12:21:00,45.0,18.0,-100.00,ENE,69,11.0,15.0,31,0.00,,,-99.99,,2013-01-19 17:21:00,
2013-01-19 12:49:00,47.0,16.0,-100.00,ENE,72,6.0,19.0,28,0.00,,,-99.99,,2013-01-19 17:49:00,
2013-01-19 13:13:00,47.0,14.0,-100.00,ENE,72,5.0,19.0,25,0.00,,,-99.99,,2013-01-19 18:13:00,
2013-01-19 13:27:00,48.0,14.0,-100.00,ENE,63,9.0,19.0,25,0.00,,,-99.99,,2013-01-19 18:27:00,
2013-01-19 13:36:00,48.0,14.0,-100.00,East,81,9.0,19.0,25,0.00,,,-99.99,,2013-01-19 18:36:00,
2013-01-19 13:45:00,49.0,14.0,-100.00,ENE,70,8.0,19.0,24,0.00,,,-99.99,,2013-01-19 18:45:00,
2013-01-19 13:55:00,49.0,14.0,-100.00,ENE,70,7.0,19.0,23,0.00,,,-99.99,,2013-01-19 18:55:00,
2013-01-19 14:09:00,49.0,14.0,-100.00,ENE,70,7.0,19.0,24,0.00,,,-99.99,,2013-01-19 19:09:00,
2013-01-19 14:21:00,50.0,16.0,-100.00,East,79,8.0,19.0,24,0.00,,,-99.99,,2013-01-19 19:21:00,
2013-01-19 14:40:00,51.0,14.0,-100.00,ENE,76,6.0,19.0,22,0.00,,,-99.99,,2013-01-19 19:40:00,
2013-01-19 14:48:00,51.0,14.0,-100.00,ENE,76,6.0,19.0,22,0.00,,,-99.99,,2013-01-19 19:48:00,
2013-01-19 14:54:00,50.0,14.0,-100.00,ENE,69,12.0,19.0,23,0.00,,,-99.99,,2013-01-19 19:54:00,
2013-01-19 15:11:00,51.0,18.0,-100.00,ENE,69,8.0,19.0,25,0.00,,,-99.99,,2013-01-19 20:11:00,
2013-01-19 15:20:00,51.0,16.0,-100.00,ENE,70,8.0,19.0,24,0.00,,,-99.99,,2013-01-19 20:20:00,
2013-01-19 15:27:00,51.0,16.0,-100.00,East,81,6.0,19.0,23,0.00,,,-99.99,,2013-01-19 20:27:00,
2013-01-19 15:39:00,51.0,16.0,-100.00,ENE,67,6.0,19.0,23,0.00,,,-99.99,,2013-01-19 20:39:00,
2013-01-19 15:49:00,51.0,16.0,-100.00,ENE,72,7.0,19.0,24,0.00,,,-99.99,,2013-01-19 20:49:00,
2013-01-19 15:54:00,51.0,16.0,-100.00,East,80,9.0,19.0,24,0.00,,,-99.99,,2013-01-19 20:54:00,
2013-01-19 16:07:00,51.0,16.0,-100.00,East,80,9.0,19.0,24,0.00,,,-99.99,,2013-01-19 21:07:00,
2013-01-19 16:15:00,51.0,16.0,-100.00,ENE,77,9.0,19.0,24,0.00,,,-99.99,,2013-01-19 21:15:00,
2013-01-19 16:45:00,51.0,18.0,-100.00,ENE,72,6.0,19.0,25,0.00,,,-99.99,,2013-01-19 21:45:00,
2013-01-19 16:52:00,51.0,16.0,-100.00,ENE,60,7.0,19.0,24,0.00,,,-99.99,,2013-01-19 21:52:00,
2013-01-19 17:15:00,50.0,16.0,-100.00,ENE,66,4.0,19.0,25,0.00,,,-99.99,,2013-01-19 22:15:00,
2013-01-19 17:28:00,51.0,18.0,-100.00,ENE,70,5.0,19.0,25,0.00,,,-99.99,,2013-01-19 22:28:00,
2013-01-19 17:35:00,50.0,18.0,-100.00,ENE,70,7.0,19.0,27,0.00,,,-99.99,,2013-01-19 22:35:00,
2013-01-19 17:48:00,47.0,16.0,-100.00,East,81,7.0,19.0,27,0.00,,,-99.99,,2013-01-19 22:48:00,
2013-01-19 17:55:00,49.0,18.0,-100.00,ENE,63,9.0,19.0,28,0.00,,,-99.99,,2013-01-19 22:55:00,
2013-01-19 18:13:00,48.0,18.0,-100.00,ENE,72,7.0,19.0,29,0.00,,,-99.99,,2013-01-19 23:13:00,
2013-01-19 18:27:00,47.0,18.0,-100.00,ENE,64,7.0,19.0,29,0.00,,,-99.99,,2013-01-19 23:27:00,
2013-01-19 18:35:00,48.0,18.0,-100.00,ENE,62,7.0,19.0,29,0.00,,,-99.99,,2013-01-19 23:35:00,
2013-01-19 18:47:00,46.0,16.0,-100.00,ENE,70,5.0,19.0,29,0.00,,,-99.99,,2013-01-19 23:47:00,
2013-01-19 19:09:00,46.0,16.0,-100.00,ENE,70,5.0,19.0,29,0.00,,,-99.99,,2013-01-20 00:09:00,
2013-01-19 19:16:00,47.0,18.0,-100.00,ENE,69,6.0,19.0,29,0.00,,,-99.99,,2013-01-20 00:16:00,
2013-01-19 19:26:00,47.0,18.0,-100.00,ENE,70,7.0,19.0,29,0.00,,,-99.99,,2013-01-20 00:26:00,
2013-01-19 19:36:00,47.0,18.0,-100.00,ENE,70,8.0,19.0,29,0.00,,,-99.99,,2013-01-20 00:36:00,
2013-01-19 19:54:00,46.0,16.0,-100.00,ESE,122,5.0,19.0,29,0.00,,,-99.99,,2013-01-20 00:54:00,
2013-01-19 20:04:00,46.0,18.0,-100.00,ENE,72,7.0,19.0,31,0.00,,,-99.99,,2013-01-20 01:04:00,
2013-01-19 20:28:00,47.0,19.0,-100.00,SSE,153,8.0,19.0,31,0.00,,,-99.99,,2013-01-20 01:28:00,
2013-01-19 20:49:00,46.0,16.0,-100.00,ESE,114,6.0,19.0,29,0.00,,,-99.99,,2013-01-20 01:49:00,
2013-01-19 20:59:00,47.0,18.0,-100.00,SE,125,8.0,19.0,31,0.00,,,-99.99,,2013-01-20 01:59:00,
2013-01-19 21:09:00,47.0,19.0,-100.00,South,175,9.0,19.0,32,0.00,,,-99.99,,2013-01-20 02:09:00,
2013-01-19 21:15:00,47.0,19.0,-100.00,South,175,9.0,19.0,32,0.00,,,-99.99,,2013-01-20 02:15:00,
2013-01-19 21:27:00,46.0,19.0,-100.00,ENE,72,8.0,19.0,32,0.00,,,-99.99,,2013-01-20 02:27:00,
2013-01-19 21:37:00,46.0,19.0,-100.00,East,83,9.0,19.0,33,0.00,,,-99.99,,2013-01-20 02:37:00,
2013-01-19 21:45:00,46.0,19.0,-100.00,ENE,72,10.0,19.0,33,0.00,,,-99.99,,2013-01-20 02:45:00,
2013-01-19 21:56:00,46.0,19.0,-100.00,ENE,72,9.0,19.0,34,0.00,,,-99.99,,2013-01-20 02:56:00,
2013-01-19 22:09:00,46.0,19.0,-100.00,ENE,76,9.0,19.0,34,0.00,,,-99.99,,2013-01-20 03:09:00,
2013-01-19 22:15:00,45.0,18.0,-100.00,South,186,10.0,19.0,33,0.00,,,-99.99,,2013-01-20 03:15:00,
2013-01-19 22:26:00,45.0,18.0,-100.00,South,186,10.0,19.0,33,0.00,,,-99.99,,2013-01-20 03:26:00,
2013-01-19 22:39:00,45.0,19.0,-100.00,SSE,159,9.0,19.0,34,0.00,,,-99.99,,2013-01-20 03:39:00,
2013-01-19 22:45:00,46.0,21.0,-100.00,ESE,118,10.0,19.0,36,0.00,,,-99.99,,2013-01-20 03:45:00,
2013-01-19 22:51:00,45.0,21.0,-100.00,ENE,70,11.0,19.0,38,0.00,,,-99.99,,2013-01-20 03:51:00,
2013-01-19 22:54:00,45.0,21.0,-100.00,ENE,73,9.0,19.0,36,0.00,,,-99.99,,2013-01-20 03:54:00,
2013-01-19 23:05:00,45.0,21.0,-100.00,ENE,73,9.0,19.0,36,0.00,,,-99.99,,2013-01-20 04:05:00,
2013-01-19 23:15:00,45.0,21.0,-100.00,ENE,70,11.0,19.0,38,0.00,,,-99.99,,2013-01-20 04:15:00,
2013-01-19 23:27:00,45.0,21.0,-100.00,ENE,70,11.0,19.0,38,0.00,,,-99.99,,2013-01-20 04:27:00,
2013-01-19 23:37:00,45.0,21.0,-100.00,ENE,70,11.0,19.0,38,0.00,,,-99.99,,2013-01-20 04:37:00,